Terminal Aerodrome Forecast
Issued by NWS

Home | Current Version | Previous Version | Text Only | Print | Product List | Glossary On
Versions: 1 2 3 4 5 6 7 8 9 10 11 12
000
FTUS46 KPDT 242338
TAFRDM
TAF
KRDM 242338Z 2500/2524 36012G20KT P6SM SKC
     FM250200 36008KT P6SM SKC
     FM250800 19004KT P6SM SKC
     FM251900 35011G18KT P6SM SKC=

USA.gov is the U.S. government's official web portal to all federal, state and local government web resources and services.